Time;durP1;ratioP1;P1;durP2;ratioP2;P2;SDS_P1;SDS_P2;PMS_P1;PMS_P2;Temp;Humidity;BMP_temperature;BMP_pressure;BME280_temperature;BME280_humidity;BME280_pressure;Samples;Min_cycle;Max_cycle;Signal;HPM_P1;HPM_P2
2022/10/04 00:00:09;;;;;;;11.57;2.53;;;13.30;99.90;;;;;;5030113;28;19909;-71
2022/10/04 00:02:36;;;;;;;14.10;1.80;;;13.30;99.90;;;;;;5029992;28;20367;-71
2022/10/04 00:05:12;;;;;;;3.95;1.35;;;13.40;99.90;;;;;;5030303;28;20022;-70
2022/10/04 00:07:51;;;;;;;14.73;1.33;;;13.30;99.90;;;;;;5029962;28;20045;-72
2022/10/04 00:10:28;;;;;;;7.82;2.33;;;13.30;99.90;;;;;;5045421;28;20022;-71
2022/10/04 00:13:05;;;;;;;4.38;1.42;;;13.30;99.90;;;;;;5045404;28;20112;-71
2022/10/04 00:15:36;;;;;;;12.82;1.83;;;13.30;99.90;;;;;;5029905;28;20395;-70
2022/10/04 00:18:27;;;;;;;4.57;1.48;;;13.30;99.90;;;;;;5029918;28;20103;-71
2022/10/04 00:20:52;;;;;;;4.25;1.30;;;13.20;99.90;;;;;;5030027;28;20352;-71
2022/10/04 00:23:24;;;;;;;10.00;1.67;;;13.20;99.90;;;;;;5029722;28;20036;-71
2022/10/04 00:26:00;;;;;;;6.63;1.52;;;13.30;99.90;;;;;;5033340;28;20022;-70
2022/10/04 00:28:31;;;;;;;9.70;2.22;;;13.20;99.90;;;;;;5033275;28;20502;-71
2022/10/04 00:31:15;;;;;;;10.65;1.65;;;13.20;99.90;;;;;;5033136;28;20040;-70
2022/10/04 00:33:43;;;;;;;7.07;1.33;;;13.20;99.90;;;;;;5033315;28;20029;-71
2022/10/04 00:36:24;;;;;;;13.77;1.63;;;13.30;99.90;;;;;;5032024;28;20087;-71
2022/10/04 00:39:08;;;;;;;9.02;1.20;;;13.30;99.90;;;;;;5033037;28;20038;-71
2022/10/04 00:41:45;;;;;;;3.53;1.10;;;13.20;99.90;;;;;;5031806;28;20087;-71
2022/10/04 00:44:20;;;;;;;4.47;1.52;;;13.20;99.90;;;;;;5033461;28;20022;-72
2022/10/04 00:46:47;;;;;;;10.95;1.70;;;13.20;99.90;;;;;;5033171;28;20038;-71
2022/10/04 00:49:16;;;;;;;3.90;1.17;;;13.20;99.90;;;;;;5033013;28;20025;-71
2022/10/04 00:52:01;;;;;;;4.68;1.85;;;13.20;99.90;;;;;;5033016;28;20036;-71
2022/10/04 00:54:28;;;;;;;4.43;1.38;;;13.20;99.90;;;;;;5032846;28;20033;-71
2022/10/04 00:57:09;;;;;;;9.23;1.67;;;13.20;99.90;;;;;;5032659;28;20402;-71
2022/10/04 00:59:38;;;;;;;5.32;1.50;;;13.10;99.90;;;;;;5048271;28;20164;-71
2022/10/04 01:02:14;;;;;;;9.45;1.23;;;13.00;99.90;;;;;;5033286;28;20233;-71
2022/10/04 01:05:01;;;;;;;8.93;1.63;;;13.10;99.90;;;;;;5032541;28;20057;-71
2022/10/04 01:07:44;;;;;;;4.43;1.43;;;13.10;99.90;;;;;;5032623;28;20052;-71
2022/10/04 01:10:19;;;;;;;4.75;1.50;;;13.00;99.90;;;;;;5032730;28;20175;-72
2022/10/04 01:13:11;;;;;;;3.90;1.40;;;13.00;99.90;;;;;;5032645;28;20568;-70
2022/10/04 01:15:58;;;;;;;5.43;1.30;;;13.10;99.90;;;;;;5022006;28;20513;-70
2022/10/04 01:18:25;;;;;;;4.63;1.42;;;13.10;99.90;;;;;;5032338;28;20561;-71
2022/10/04 01:20:50;;;;;;;8.90;1.60;;;13.10;99.90;;;;;;5031129;28;20036;-70
2022/10/04 01:23:48;;;;;;;11.00;1.95;;;13.10;99.90;;;;;;5031442;28;20399;-70
2022/10/04 01:26:29;;;;;;;;;;;13.10;99.90;;;;;;5032497;28;20054;-71
2022/10/04 01:29:12;;;;;;;6.00;1.50;;;13.10;99.90;;;;;;5032717;28;19905;-70
2022/10/04 01:31:44;;;;;;;5.65;1.58;;;13.10;99.90;;;;;;5031982;28;20053;-70
2022/10/04 01:34:16;;;;;;;7.07;1.63;;;13.10;99.90;;;;;;5030971;28;20053;-71
2022/10/04 01:36:46;;;;;;;5.25;1.13;;;13.10;99.90;;;;;;5047172;28;20566;-71
2022/10/04 01:39:12;;;;;;;6.97;1.95;;;13.10;99.90;;;;;;5051849;28;20029;-72
2022/10/04 01:41:47;;;;;;;4.38;1.70;;;13.10;99.90;;;;;;5051703;28;20049;-71
2022/10/04 01:44:48;;;;;;;6.53;1.90;;;13.10;99.90;;;;;;5052413;28;20413;-71
2022/10/04 01:47:26;;;;;;;8.70;1.90;;;13.10;99.90;;;;;;5049319;28;20047;-71
2022/10/04 01:49:57;;;;;;;9.00;2.17;;;13.10;99.90;;;;;;5052028;28;20458;-70
2022/10/04 01:52:42;;;;;;;8.40;1.90;;;13.20;99.90;;;;;;5051679;28;20029;-71
2022/10/04 01:55:16;;;;;;;12.55;2.08;;;13.20;99.90;;;;;;5051418;28;20063;-71
2022/10/04 01:58:17;;;;;;;6.03;1.88;;;13.20;99.90;;;;;;5050352;28;20427;-71
2022/10/04 02:01:08;;;;;;;5.55;1.50;;;13.20;99.90;;;;;;5049037;28;20029;-70
2022/10/04 02:03:50;;;;;;;6.88;1.70;;;13.20;99.90;;;;;;5051352;28;20037;-71
2022/10/04 02:06:17;;;;;;;8.63;1.33;;;13.20;99.90;;;;;;5051251;28;20056;-71
2022/10/04 02:08:49;;;;;;;8.80;1.73;;;13.10;99.90;;;;;;5051344;28;20044;-70
2022/10/04 02:11:20;;;;;;;5.40;1.88;;;13.20;99.90;;;;;;5051753;28;20033;-71
2022/10/04 02:13:49;;;;;;;9.95;1.60;;;13.20;99.90;;;;;;5051222;28;20045;-71
2022/10/04 02:16:16;;;;;;;10.02;2.30;;;13.20;99.90;;;;;;5051547;28;20049;-71
2022/10/04 02:18:44;;;;;;;8.55;1.50;;;13.20;99.90;;;;;;5051331;28;20434;-71
2022/10/04 02:21:11;;;;;;;12.00;1.40;;;13.20;99.90;;;;;;5051275;28;20057;-72
2022/10/04 02:23:39;;;;;;;9.60;1.58;;;13.20;99.90;;;;;;5051173;28;20035;-72
2022/10/04 02:26:06;;;;;;;;;;;13.20;99.90;;;;;;5051912;28;20355;-71
2022/10/04 02:28:33;;;;;;;13.90;3.00;;;13.20;99.90;;;;;;5051065;28;19963;-71
2022/10/04 02:33:48;;;;;;;4.93;1.52;;;13.30;99.90;;;;;;5051039;28;20521;-72
2022/10/04 02:36:14;;;;;;;7.72;2.03;;;13.20;99.90;;;;;;5050891;28;20060;-71
2022/10/04 02:39:22;;;;;;;12.50;1.80;;;13.20;99.90;;;;;;5050795;28;20431;-72
2022/10/04 02:41:57;;;;;;;7.82;1.70;;;13.20;99.90;;;;;;5048398;28;20029;-71
2022/10/04 02:44:30;;;;;;;10.05;1.92;;;13.20;99.90;;;;;;5048404;28;20025;-71
2022/10/04 02:47:14;;;;;;;6.78;1.38;;;13.20;99.90;;;;;;5049818;28;20131;-71
2022/10/04 02:50:05;;;;;;;9.43;1.55;;;13.10;99.90;;;;;;5050564;28;20025;-71
2022/10/04 02:52:45;;;;;;;5.28;1.52;;;13.20;99.90;;;;;;5049484;28;20033;-71
2022/10/04 02:55:21;;;;;;;8.43;1.27;;;13.20;99.90;;;;;;5050646;28;20043;-70
2022/10/04 02:57:48;;;;;;;10.13;2.28;;;13.20;99.90;;;;;;5050467;28;20112;-70
2022/10/04 03:00:19;;;;;;;4.60;1.63;;;13.20;99.90;;;;;;5050406;28;20033;-71
2022/10/04 03:03:09;;;;;;;8.60;1.55;;;13.20;99.90;;;;;;5050639;28;20056;-70
2022/10/04 03:05:36;;;;;;;10.98;1.85;;;13.10;99.90;;;;;;5050411;28;20032;-71
2022/10/04 03:08:04;;;;;;;6.47;1.42;;;13.10;99.90;;;;;;5051121;28;20110;-71
2022/10/04 03:10:30;;;;;;;5.47;1.33;;;13.10;99.90;;;;;;5050754;28;20033;-71
2022/10/04 03:12:56;;;;;;;12.82;2.58;;;13.10;99.90;;;;;;5050343;28;20052;-71
2022/10/04 03:15:21;;;;;;;7.90;1.90;;;13.20;99.90;;;;;;5050197;28;20391;-71
2022/10/04 03:17:49;;;;;;;9.18;1.77;;;13.10;99.90;;;;;;5050335;28;20499;-70
2022/10/04 03:20:20;;;;;;;8.03;1.33;;;13.00;99.90;;;;;;5049826;28;20032;-71
2022/10/04 03:22:51;;;;;;;6.45;1.67;;;13.10;99.90;;;;;;5049216;28;20438;-71
2022/10/04 03:25:22;;;;;;;5.22;1.60;;;13.10;99.90;;;;;;5050237;28;20060;-71
2022/10/04 03:27:49;;;;;;;11.57;1.95;;;13.10;99.90;;;;;;5050177;28;20029;-70
2022/10/04 03:30:19;;;;;;;5.85;1.48;;;13.10;99.90;;;;;;5050275;28;20045;-70
2022/10/04 03:32:46;;;;;;;6.30;1.60;;;13.10;99.90;;;;;;5050395;28;20037;-70
2022/10/04 03:35:34;;;;;;;7.50;1.70;;;13.10;99.90;;;;;;5050455;28;20060;-71
2022/10/04 03:38:03;;;;;;;11.35;1.55;;;13.10;99.90;;;;;;5050195;28;20033;-70
2022/10/04 03:40:31;;;;;;;5.32;1.20;;;13.10;99.90;;;;;;5050053;28;20367;-70
2022/10/04 03:42:57;;;;;;;;;;;13.10;99.90;;;;;;5050725;28;20052;-70
2022/10/04 03:45:27;;;;;;;7.93;1.80;;;13.10;99.90;;;;;;5049945;28;20000;-71
2022/10/04 03:47:57;;;;;;;7.10;1.70;;;13.00;99.90;;;;;;5050190;28;20133;-71
2022/10/04 03:50:33;;;;;;;4.35;1.48;;;13.00;99.90;;;;;;5050289;28;20104;-70
2022/10/04 03:53:11;;;;;;;3.85;1.35;;;13.00;99.90;;;;;;5050255;28;20419;-70
2022/10/04 03:55:42;;;;;;;10.88;1.45;;;13.00;99.90;;;;;;5048958;28;20108;-70
2022/10/04 03:58:11;;;;;;;8.40;1.45;;;13.10;99.90;;;;;;5049911;28;20029;-71
2022/10/04 04:00:42;;;;;;;6.57;1.65;;;13.10;99.90;;;;;;5053176;28;20056;-71
2022/10/04 04:03:15;;;;;;;13.45;2.53;;;13.00;99.90;;;;;;5053594;28;20128;-70
2022/10/04 04:05:52;;;;;;;5.90;1.30;;;13.10;99.90;;;;;;5053953;28;20390;-69
2022/10/04 04:08:38;;;;;;;6.03;1.90;;;13.00;99.90;;;;;;5053466;28;20055;-70
2022/10/04 04:11:10;;;;;;;1.48;0.75;;;13.10;99.90;;;;;;5054000;28;20465;-71
2022/10/04 04:13:55;;;;;;;4.28;1.25;;;13.10;99.90;;;;;;5053378;28;20123;-71
2022/10/04 04:16:25;;;;;;;6.00;1.50;;;13.00;99.90;;;;;;5053767;28;20389;-70
2022/10/04 04:18:53;;;;;;;6.50;1.60;;;13.00;99.90;;;;;;5053817;28;20036;-71
2022/10/04 04:21:23;;;;;;;9.30;2.45;;;13.00;99.90;;;;;;5053395;28;20053;-71
2022/10/04 04:24:00;;;;;;;7.25;1.50;;;13.00;99.90;;;;;;5053257;28;20037;-70
2022/10/04 04:26:48;;;;;;;8.02;1.77;;;13.00;99.90;;;;;;5053144;28;20139;-71
2022/10/04 04:29:41;;;;;;;6.40;1.90;;;13.00;99.90;;;;;;5053568;28;20373;-70
2022/10/04 04:32:28;;;;;;;8.70;1.80;;;13.00;99.90;;;;;;5053148;28;20040;-70
2022/10/04 04:35:06;;;;;;;11.75;1.30;;;12.90;99.90;;;;;;5053559;28;20360;-71
2022/10/04 04:37:36;;;;;;;9.03;1.60;;;12.90;99.90;;;;;;5052240;28;20029;-71
2022/10/04 04:40:31;;;;;;;5.07;1.88;;;12.80;99.90;;;;;;5053219;28;20033;-71
2022/10/04 04:43:00;;;;;;;14.25;1.90;;;12.80;99.90;;;;;;5052404;28;20370;-71
2022/10/04 04:45:29;;;;;;;9.75;2.30;;;12.80;99.90;;;;;;5051887;28;20130;-71
2022/10/04 04:47:56;;;;;;;6.78;1.65;;;12.80;99.90;;;;;;5052918;28;20514;-71
2022/10/04 04:50:26;;;;;;;8.07;1.70;;;12.90;99.90;;;;;;5052811;28;20029;-71
2022/10/04 04:53:13;;;;;;;6.00;1.23;;;12.80;99.90;;;;;;5053786;28;20017;-71
2022/10/04 04:55:43;;;;;;;6.30;2.05;;;12.80;99.90;;;;;;5053253;28;20138;-70
2022/10/04 04:58:20;;;;;;;6.75;1.67;;;12.80;99.90;;;;;;5052730;28;20041;-71
2022/10/04 05:00:57;;;;;;;7.72;1.92;;;12.80;99.90;;;;;;5052661;28;20039;-70
2022/10/04 05:03:24;;;;;;;7.55;2.47;;;12.80;99.90;;;;;;5051502;28;20040;-70
2022/10/04 05:05:51;;;;;;;10.47;1.47;;;12.80;99.90;;;;;;5052558;28;20028;-71
2022/10/04 05:08:26;;;;;;;10.02;1.73;;;12.90;99.90;;;;;;5051903;28;20258;-72
2022/10/04 05:11:07;;;;;;;8.73;1.90;;;12.80;99.90;;;;;;5052372;28;20029;-70
2022/10/04 05:13:51;;;;;;;8.23;1.92;;;12.90;99.90;;;;;;5052262;28;20048;-70
2022/10/04 05:16:35;;;;;;;8.10;1.80;;;12.80;99.90;;;;;;5052327;28;20167;-71
2022/10/04 05:19:07;;;;;;;14.82;2.05;;;12.80;99.90;;;;;;5052320;28;20032;-71
2022/10/04 05:21:34;;;;;;;7.35;1.67;;;12.90;99.90;;;;;;5051245;28;20037;-71
2022/10/04 05:24:35;;;;;;;5.82;1.50;;;12.80;99.90;;;;;;5051948;28;20041;-71
2022/10/04 05:27:03;;;;;;;8.35;2.05;;;12.90;99.90;;;;;;5064010;28;20420;-72
2022/10/04 05:29:38;;;;;;;18.17;8.88;;;12.80;99.90;;;;;;5051888;28;20029;-69
2022/10/04 05:32:39;;;;;;;16.48;7.57;;;12.80;99.90;;;;;;5048059;28;20470;-69
2022/10/04 05:35:20;;;;;;;12.35;4.22;;;12.80;99.90;;;;;;5025506;28;20049;-70
2022/10/04 05:37:52;;;;;;;12.48;4.30;;;12.80;99.90;;;;;;5032104;28;20045;-70
2022/10/04 05:40:31;;;;;;;11.45;4.38;;;12.90;99.90;;;;;;5031841;28;20043;-72
2022/10/04 05:42:58;;;;;;;13.45;4.15;;;12.80;99.90;;;;;;5031813;28;20032;-71
2022/10/04 05:45:29;;;;;;;6.55;1.60;;;12.80;99.90;;;;;;5063921;28;20037;-71
2022/10/04 05:47:57;;;;;;;8.25;2.10;;;12.80;99.90;;;;;;5032165;28;20039;-72
2022/10/04 05:50:41;;;;;;;9.93;1.95;;;12.80;99.90;;;;;;5031856;28;20399;-72
2022/10/04 05:53:26;;;;;;;5.68;1.60;;;12.80;99.90;;;;;;5031288;28;20053;-71
2022/10/04 05:56:10;;;;;;;11.35;2.20;;;12.80;99.90;;;;;;5031736;28;20095;-71
2022/10/04 05:58:57;;;;;;;9.95;1.80;;;12.80;99.90;;;;;;5031745;28;20294;-70
2022/10/04 06:01:55;;;;;;;9.75;2.55;;;12.80;99.90;;;;;;5031520;28;20108;-70
2022/10/04 06:04:30;;;;;;;12.60;1.90;;;12.80;99.90;;;;;;5031226;28;20030;-70
2022/10/04 06:07:03;;;;;;;9.70;2.13;;;12.80;99.90;;;;;;5031192;28;20037;-70
2022/10/04 06:09:56;;;;;;;7.78;2.05;;;12.90;99.90;;;;;;5031188;28;20038;-70
2022/10/04 06:12:56;;;;;;;6.38;1.60;;;12.90;99.90;;;;;;5031313;28;20029;-71
2022/10/04 06:15:43;;;;;;;12.50;2.10;;;12.90;99.90;;;;;;5030661;28;20041;-71
2022/10/04 06:18:24;;;;;;;8.85;2.03;;;12.90;99.90;;;;;;5029981;28;20030;-70
2022/10/04 06:21:05;;;;;;;15.05;3.88;;;12.90;99.90;;;;;;5029904;28;20036;-71
2022/10/04 06:23:36;;;;;;;17.33;4.32;;;12.90;99.90;;;;;;5030697;28;20017;-70
2022/10/04 06:26:16;;;;;;;8.88;2.10;;;13.00;99.90;;;;;;5031371;28;20232;-71
2022/10/04 06:28:47;;;;;;;10.63;2.50;;;13.00;99.90;;;;;;5031293;28;20030;-70
2022/10/04 06:31:54;;;;;;;9.27;2.05;;;13.00;99.90;;;;;;5031026;28;20025;-70
2022/10/04 06:35:16;;;;;;;5.50;1.65;;;13.00;99.90;;;;;;5030727;28;20095;-70
2022/10/04 06:38:15;;;;;;;8.30;2.17;;;13.00;99.90;;;;;;5029418;28;20033;-71
2022/10/04 06:41:06;;;;;;;4.60;1.40;;;13.00;99.90;;;;;;5029617;28;20352;-70
2022/10/04 06:43:45;;;;;;;10.25;2.25;;;13.10;99.90;;;;;;5030841;28;20029;-71
2022/10/04 06:46:20;;;;;;;7.40;2.30;;;13.10;99.90;;;;;;5030597;28;20125;-70
2022/10/04 06:49:37;;;;;;;10.32;2.05;;;13.20;99.90;;;;;;5030444;28;20041;-69
2022/10/04 06:52:23;;;;;;;11.88;2.88;;;13.20;99.90;;;;;;5029351;28;20033;-70
2022/10/04 06:55:03;;;;;;;8.88;2.15;;;13.20;99.90;;;;;;5030466;28;20041;-71
2022/10/04 06:57:44;;;;;;;16.45;3.85;;;13.30;99.90;;;;;;5030472;28;20033;-71
2022/10/04 07:00:19;;;;;;;15.30;2.92;;;13.30;99.90;;;;;;5030500;28;20037;-70
2022/10/04 07:02:45;;;;;;;5.65;2.15;;;13.40;99.90;;;;;;5029219;28;20562;-71
2022/10/04 07:05:32;;;;;;;10.85;2.63;;;13.40;99.90;;;;;;5030999;28;20108;-71
2022/10/04 07:08:29;;;;;;;11.77;2.13;;;13.50;99.90;;;;;;5030882;28;20041;-72
2022/10/04 07:11:00;;;;;;;9.17;2.40;;;13.50;99.90;;;;;;5009791;28;20372;-72
2022/10/04 07:13:26;;;;;;;9.95;2.30;;;13.60;99.90;;;;;;5042706;28;20259;-71
2022/10/04 07:16:16;;;;;;;11.43;2.63;;;13.70;99.90;;;;;;5010337;28;20056;-72
2022/10/04 07:19:23;;;;;;;20.85;2.95;;;13.70;99.90;;;;;;5010501;28;20078;-70
2022/10/04 07:22:08;;;;;;;14.70;2.58;;;13.80;99.90;;;;;;5010568;28;20041;-72
2022/10/04 07:24:56;;;;;;;5.43;2.45;;;13.80;99.90;;;;;;5009476;28;20438;-71
2022/10/04 07:29:19;;;;;;;13.63;2.53;;;13.90;99.90;;;;;;5010642;28;20026;-71
2022/10/04 07:30:38;;;;;;;11.55;2.05;;;13.90;99.90;;;;;;5010671;28;20060;-71
2022/10/04 07:33:07;;;;;;;9.52;2.90;;;14.00;99.90;;;;;;5011197;28;20026;-71
2022/10/04 07:35:52;;;;;;;9.60;2.47;;;14.10;99.90;;;;;;5014304;28;20033;-72
2022/10/04 07:38:30;;;;;;;7.40;2.60;;;14.10;99.90;;;;;;5014767;28;20060;-70
2022/10/04 07:41:08;;;;;;;10.45;2.15;;;14.20;99.90;;;;;;5014806;28;20103;-71
2022/10/04 07:43:55;;;;;;;14.63;2.75;;;14.30;99.90;;;;;;5014523;28;20095;-72
2022/10/04 07:46:42;;;;;;;11.97;2.93;;;14.30;99.90;;;;;;5014292;28;20046;-73
2022/10/04 07:49:16;;;;;;;19.65;2.45;;;14.40;99.90;;;;;;5014435;28;20367;-72
2022/10/04 07:52:01;;;;;;;11.82;2.10;;;14.50;99.90;;;;;;5014198;28;20048;-71
2022/10/04 07:54:59;;;;;;;12.90;2.88;;;14.50;99.90;;;;;;5014299;28;20030;-71
2022/10/04 07:57:34;;;;;;;14.48;2.70;;;14.50;99.90;;;;;;5004815;28;20041;-71
2022/10/04 08:00:19;;;;;;;5.45;2.05;;;14.60;99.90;;;;;;5014077;28;20033;-72
2022/10/04 08:02:45;;;;;;;8.35;2.75;;;14.60;99.90;;;;;;5014016;28;20124;-71
2022/10/04 08:05:26;;;;;;;7.03;2.03;;;14.70;99.90;;;;;;5014138;28;20108;-70
2022/10/04 08:08:36;;;;;;;8.25;1.92;;;14.70;99.90;;;;;;5014172;28;20422;-71
2022/10/04 08:11:28;;;;;;;12.05;2.30;;;14.80;99.90;;;;;;5033883;28;20033;-72
2022/10/04 08:14:12;;;;;;;7.70;2.10;;;14.80;99.90;;;;;;5033646;28;20051;-72
2022/10/04 08:16:56;;;;;;;10.80;2.17;;;14.90;99.90;;;;;;5033778;28;20026;-71
2022/10/04 08:19:40;;;;;;;13.93;2.28;;;14.90;99.90;;;;;;5033812;28;20489;-72
2022/10/04 08:23:01;;;;;;;9.40;2.20;;;14.90;99.90;;;;;;5032533;28;20033;-71
2022/10/04 08:25:55;;;;;;;8.82;2.05;;;15.00;99.90;;;;;;5014563;28;20124;-71
2022/10/04 08:31:57;;;;;;;10.55;2.40;;;15.10;99.90;;;;;;5033364;28;20044;-71
2022/10/04 08:35:00;;;;;;;8.38;2.13;;;15.20;99.90;;;;;;5033311;28;20064;-71
2022/10/04 08:37:53;;;;;;;9.98;2.58;;;15.30;99.90;;;;;;5031057;28;20026;-71
2022/10/04 08:40:47;;;;;;;5.50;2.05;;;15.50;99.90;;;;;;5032960;28;20409;-71
2022/10/04 08:43:15;;;;;;;16.48;3.08;;;15.70;99.90;;;;;;5033074;28;20121;-70
2022/10/04 08:46:08;;;;;;;6.90;1.95;;;16.20;99.90;;;;;;5032253;28;20041;-71
2022/10/04 08:48:56;;;;;;;5.18;2.88;;;16.80;99.90;;;;;;5033066;28;20478;-71
2022/10/04 08:51:41;;;;;;;6.80;2.28;;;17.50;99.90;;;;;;5033277;28;20037;-70
2022/10/04 08:54:24;;;;;;;9.60;2.50;;;18.00;99.60;;;;;;5032850;28;20037;-71
2022/10/04 08:56:56;;;;;;;12.50;2.75;;;18.50;97.60;;;;;;5032947;28;20040;-72
2022/10/04 08:59:48;;;;;;;11.30;3.30;;;18.90;98.30;;;;;;5032845;28;20032;-72
2022/10/04 09:02:33;;;;;;;8.25;2.13;;;19.40;96.60;;;;;;5033297;28;20108;-71
2022/10/04 09:05:28;;;;;;;8.95;2.40;;;19.90;97.00;;;;;;5032694;28;20052;-72
2022/10/04 09:08:17;;;;;;;7.93;1.90;;;20.40;95.10;;;;;;5032442;28;20057;-71
2022/10/04 09:11:18;;;;;;;12.30;2.47;;;20.70;94.60;;;;;;5033105;28;20034;-71
2022/10/04 09:14:22;;;;;;;11.20;2.75;;;21.50;94.50;;;;;;4994409;28;20033;-71
2022/10/04 09:17:02;;;;;;;5.60;1.90;;;22.10;93.80;;;;;;5013261;28;20112;-71
2022/10/04 09:19:47;;;;;;;9.18;2.08;;;22.70;91.70;;;;;;5012732;28;20560;-71
2022/10/04 09:22:34;;;;;;;10.75;2.35;;;23.40;91.90;;;;;;5011670;28;20479;-71
2022/10/04 09:25:09;;;;;;;7.35;2.15;;;23.90;91.90;;;;;;5012139;28;20042;-71
2022/10/04 09:28:16;;;;;;;8.45;2.17;;;24.40;90.40;;;;;;5012722;28;20027;-71
2022/10/04 09:30:58;;;;;;;8.38;2.42;;;24.80;86.80;;;;;;5012400;28;20044;-71
2022/10/04 09:33:32;;;;;;;7.22;1.98;;;25.20;83.70;;;;;;5012272;28;20034;-73
2022/10/04 09:36:04;;;;;;;6.95;1.98;;;26.00;83.50;;;;;;5012549;28;20562;-73
2022/10/04 09:39:00;;;;;;;5.65;1.92;;;26.40;84.20;;;;;;5012310;28;20419;-72
2022/10/04 09:41:33;;;;;;;5.93;1.83;;;27.00;81.30;;;;;;5012292;28;20470;-72
2022/10/04 09:44:37;;;;;;;5.43;1.88;;;27.50;76.10;;;;;;5012846;28;20024;-71
2022/10/04 09:47:36;;;;;;;12.73;2.00;;;28.20;74.60;;;;;;5012284;28;20294;-71
2022/10/04 09:50:40;;;;;;;7.93;1.83;;;28.90;75.00;;;;;;5032297;28;20471;-72
2022/10/04 09:53:22;;;;;;;9.65;2.03;;;29.50;69.50;;;;;;5030965;28;20057;-73
2022/10/04 09:56:10;;;;;;;7.35;2.25;;;30.00;69.40;;;;;;5063970;28;20041;-70
2022/10/04 09:58:57;;;;;;;6.65;1.90;;;30.30;66.50;;;;;;5031339;28;20413;-70
2022/10/04 10:01:37;;;;;;;7.07;2.13;;;30.60;68.70;;;;;;5031629;28;20037;-69
2022/10/04 10:04:36;;;;;;;10.70;2.22;;;30.60;65.30;;;;;;5031542;28;20044;-70
2022/10/04 10:07:19;;;;;;;9.95;2.03;;;30.00;61.80;;;;;;5031350;28;20183;-71
2022/10/04 10:15:57;;;;;;;6.97;1.85;;;26.20;66.60;;;;;;5031314;28;20056;-72
2022/10/04 10:18:45;;;;;;;5.63;1.80;;;25.50;67.70;;;;;;5031356;28;20537;-70
2022/10/04 10:21:33;;;;;;;7.72;2.15;;;25.30;67.50;;;;;;5031397;28;20061;-71
2022/10/04 10:24:18;;;;;;;8.55;2.22;;;25.40;69.20;;;;;;5029977;28;20095;-72
2022/10/04 10:27:23;;;;;;;4.45;1.35;;;26.50;68.60;;;;;;5030020;28;20048;-73
2022/10/04 10:30:08;;;;;;;8.00;2.30;;;27.50;69.10;;;;;;5031159;28;20037;-72
2022/10/04 10:33:02;;;;;;;8.30;1.83;;;28.50;66.60;;;;;;5031321;28;20116;-71
2022/10/04 10:35:47;;;;;;;10.32;2.25;;;29.10;64.60;;;;;;5020386;28;20036;-71
2022/10/04 10:38:53;;;;;;;6.63;1.85;;;29.60;63.00;;;;;;5031800;28;20017;-70
2022/10/04 10:41:38;;;;;;;7.15;2.15;;;29.40;60.70;;;;;;5049629;28;20025;-69
2022/10/04 10:44:18;;;;;;;7.53;1.85;;;29.80;59.20;;;;;;5051680;28;20021;-71
2022/10/04 10:47:17;;;;;;;8.27;1.63;;;30.10;64.30;;;;;;5051010;28;20040;-70
2022/10/04 10:49:55;;;;;;;5.50;1.50;;;30.40;59.10;;;;;;5051265;28;20055;-71
2022/10/04 10:52:56;;;;;;;7.95;1.65;;;30.30;57.60;;;;;;5050635;28;20033;-72
2022/10/04 10:55:28;;;;;;;7.15;1.35;;;30.40;58.50;;;;;;5050810;28;20033;-71
2022/10/04 10:58:32;;;;;;;8.95;1.70;;;30.40;59.60;;;;;;5050651;28;20459;-71
2022/10/04 11:01:13;;;;;;;6.72;1.77;;;30.30;58.80;;;;;;5050574;28;20029;-71
2022/10/04 11:03:54;;;;;;;2.90;1.20;;;30.50;57.40;;;;;;5050574;28;20033;-70
2022/10/04 11:06:52;;;;;;;4.40;1.20;;;30.60;56.10;;;;;;5050337;28;20040;-72
2022/10/04 11:09:31;;;;;;;4.93;1.23;;;30.60;57.20;;;;;;5048216;28;20112;-71
2022/10/04 11:12:18;;;;;;;2.83;1.25;;;30.90;56.10;;;;;;5050155;28;20037;-71
2022/10/04 11:15:28;;;;;;;4.82;1.48;;;31.10;55.10;;;;;;5050382;28;20041;-72
2022/10/04 11:18:20;;;;;;;5.13;1.23;;;31.10;54.30;;;;;;5050299;28;20155;-71
2022/10/04 11:21:25;;;;;;;9.23;1.63;;;31.00;55.10;;;;;;5050340;28;20082;-72
2022/10/04 11:24:13;;;;;;;8.25;1.55;;;31.00;53.00;;;;;;5050054;28;20029;-71
2022/10/04 11:26:55;;;;;;;8.90;1.83;;;30.70;52.30;;;;;;5049217;28;20469;-71
2022/10/04 11:29:34;;;;;;;6.28;1.48;;;30.70;52.70;;;;;;5050136;28;20071;-72
2022/10/04 11:32:00;;;;;;;6.18;1.65;;;30.90;52.90;;;;;;5050778;28;20025;-70
2022/10/04 11:35:11;;;;;;;3.67;1.30;;;30.50;53.20;;;;;;5050185;28;20421;-71
2022/10/04 11:38:02;;;;;;;6.38;1.20;;;29.20;54.00;;;;;;5048531;28;20040;-70
2022/10/04 11:40:43;;;;;;;6.07;1.60;;;28.30;55.50;;;;;;5050214;28;20037;-71
2022/10/04 11:43:36;;;;;;;10.05;1.80;;;27.50;56.40;;;;;;5050159;28;20033;-72
2022/10/04 11:46:17;;;;;;;4.63;1.45;;;27.10;57.40;;;;;;5050035;28;20029;-71
2022/10/04 11:49:20;;;;;;;5.22;1.65;;;26.50;57.80;;;;;;5050139;28;20120;-71
2022/10/04 11:52:19;;;;;;;7.20;1.40;;;25.50;59.30;;;;;;5050216;28;20121;-71
2022/10/04 11:55:22;;;;;;;6.45;1.85;;;25.20;58.60;;;;;;5050087;28;20480;-71
2022/10/04 11:58:04;;;;;;;9.60;1.65;;;24.90;59.10;;;;;;5049982;28;20033;-70
2022/10/04 12:01:10;;;;;;;6.13;1.63;;;24.50;59.90;;;;;;5049729;28;20364;-71
2022/10/04 12:03:54;;;;;;;7.05;1.45;;;24.20;60.10;;;;;;5049709;28;20259;-70
2022/10/04 12:06:39;;;;;;;4.18;1.55;;;24.00;60.60;;;;;;5049617;28;20041;-71
2022/10/04 12:09:25;;;;;;;3.35;1.30;;;23.80;60.60;;;;;;5049802;28;20259;-71
2022/10/04 12:15:18;;;;;;;3.47;1.58;;;23.40;61.50;;;;;;5049438;28;20063;-70
2022/10/04 12:18:16;;;;;;;5.72;1.38;;;23.30;61.60;;;;;;5049898;28;20025;-71
2022/10/04 12:21:06;;;;;;;4.68;1.70;;;23.00;62.00;;;;;;5051428;28;20033;-71
2022/10/04 12:23:52;;;;;;;4.65;1.80;;;22.70;62.40;;;;;;5053328;28;20032;-72
2022/10/04 12:26:55;;;;;;;5.30;1.77;;;22.60;63.40;;;;;;5053110;28;20033;-71
2022/10/04 12:29:27;;;;;;;7.20;1.90;;;22.50;64.10;;;;;;5051632;28;20041;-72
2022/10/04 12:32:09;;;;;;;5.75;2.15;;;22.40;65.10;;;;;;5054347;28;20103;-70
2022/10/04 12:35:07;;;;;;;6.35;1.60;;;22.40;64.80;;;;;;5053003;28;20332;-70
2022/10/04 12:37:39;;;;;;;;;;;22.50;65.10;;;;;;5053516;28;20025;-71
2022/10/04 12:40:11;;;;;;;5.35;1.48;;;22.30;66.10;;;;;;5053153;28;20004;-71
2022/10/04 12:43:03;;;;;;;6.00;1.98;;;22.30;65.90;;;;;;5052028;28;20037;-69
2022/10/04 12:45:44;;;;;;;3.72;1.65;;;22.10;65.10;;;;;;5053015;28;20128;-70
2022/10/04 12:48:13;;;;;;;10.15;2.30;;;22.00;65.60;;;;;;5053059;28;20086;-70
2022/10/04 12:51:00;;;;;;;8.68;2.08;;;22.00;65.90;;;;;;5053228;28;20033;-72
2022/10/04 12:53:33;;;;;;;6.28;1.98;;;21.90;66.60;;;;;;5053202;28;20039;-71
2022/10/04 12:56:20;;;;;;;6.55;2.05;;;21.80;66.30;;;;;;5053280;28;20067;-72
2022/10/04 12:58:58;;;;;;;2.28;1.48;;;21.50;66.40;;;;;;5032324;28;20057;-71
2022/10/04 13:02:03;;;;;;;5.28;2.33;;;21.60;66.50;;;;;;5033029;28;20053;-72
2022/10/04 13:04:52;;;;;;;4.13;1.55;;;21.40;66.80;;;;;;5012021;28;20472;-72
2022/10/04 13:07:50;;;;;;;5.70;1.58;;;21.50;67.60;;;;;;5032806;28;20043;-71
2022/10/04 13:10:43;;;;;;;3.72;1.80;;;21.50;67.90;;;;;;5032746;28;20033;-70
2022/10/04 13:13:43;;;;;;;4.10;1.77;;;21.50;68.90;;;;;;5032498;28;20034;-71
2022/10/04 13:16:09;;;;;;;8.65;1.92;;;21.50;68.50;;;;;;5032576;28;20073;-71
2022/10/04 13:19:12;;;;;;;5.50;2.00;;;21.40;68.90;;;;;;5032379;28;20068;-71
2022/10/04 13:21:38;;;;;;;6.75;1.83;;;21.40;69.50;;;;;;5032697;28;20116;-71
2022/10/04 13:24:18;;;;;;;3.85;1.70;;;21.30;70.20;;;;;;5032732;28;20120;-71
2022/10/04 13:27:08;;;;;;;5.90;2.05;;;21.30;71.00;;;;;;5064474;28;20107;-71
2022/10/04 13:29:51;;;;;;;7.28;2.20;;;21.20;71.20;;;;;;5032317;28;20068;-72
2022/10/04 13:32:25;;;;;;;15.77;2.15;;;21.10;70.90;;;;;;5032422;28;20025;-71
2022/10/04 13:35:15;;;;;;;6.82;1.92;;;21.10;70.50;;;;;;5031631;28;20042;-71
2022/10/04 13:38:19;;;;;;;7.05;2.13;;;21.10;71.30;;;;;;5032406;28;20038;-70
2022/10/04 13:41:17;;;;;;;7.70;2.42;;;21.10;70.90;;;;;;5032106;28;20040;-71
2022/10/04 13:43:49;;;;;;;6.43;2.00;;;21.10;70.60;;;;;;5052418;28;20032;-71
2022/10/04 13:46:20;;;;;;;5.82;2.10;;;21.00;69.70;;;;;;5051982;28;20108;-70
2022/10/04 13:49:05;;;;;;;8.63;1.92;;;21.00;70.40;;;;;;5052145;28;20120;-71
2022/10/04 13:56:35;;;;;;;4.07;1.75;;;21.00;70.90;;;;;;5051920;28;20040;-72
2022/10/04 13:58:13;;;;;;;7.80;2.22;;;20.80;71.00;;;;;;5051503;28;20374;-70
2022/10/04 14:01:03;;;;;;;7.57;1.85;;;20.80;71.60;;;;;;5051615;28;20036;-72
2022/10/04 14:04:17;;;;;;;7.45;2.40;;;20.80;71.80;;;;;;5051500;28;20527;-72
2022/10/04 14:07:25;;;;;;;2.55;1.63;;;20.90;72.30;;;;;;5050423;28;20451;-72
2022/10/04 14:10:15;;;;;;;8.10;2.33;;;20.90;72.60;;;;;;5043349;28;20248;-71
2022/10/04 14:12:56;;;;;;;4.95;2.00;;;20.70;72.70;;;;;;5051542;28;20033;-72
2022/10/04 14:15:34;;;;;;;5.32;1.92;;;20.70;73.50;;;;;;5051287;28;20412;-71
2022/10/04 14:18:11;;;;;;;;;;;20.60;73.60;;;;;;5052296;28;20025;-72
2022/10/04 14:20:43;;;;;;;4.22;1.65;;;20.60;74.10;;;;;;5051316;28;20300;-72